createdAt,value
2022-08-26T00:02:20.630Z,73.01
2022-08-26T00:04:49.648Z,72.83
2022-08-26T00:07:20.066Z,72.30
2022-08-26T00:09:48.959Z,71.18
2022-08-26T00:12:18.962Z,71.55
2022-08-26T00:15:00.969Z,71.96
2022-08-26T00:17:30.764Z,71.87
2022-08-26T00:19:59.817Z,71.85
2022-08-26T00:22:28.775Z,71.85
2022-08-26T00:24:58.928Z,71.87
2022-08-26T00:27:27.915Z,71.87
2022-08-26T00:29:57.876Z,71.77
2022-08-26T00:32:28.718Z,71.86
2022-08-26T00:34:59.503Z,71.52
2022-08-26T00:37:29.386Z,71.94
2022-08-26T00:40:00.770Z,72.18
2022-08-26T00:42:34.241Z,71.93
2022-08-26T00:45:04.180Z,71.82
2022-08-26T00:47:47.954Z,71.68
2022-08-26T00:50:25.083Z,71.67
2022-08-26T00:52:55.714Z,71.97
2022-08-26T00:55:37.840Z,72.53
2022-08-26T00:58:09.211Z,73.14
2022-08-26T01:00:38.197Z,72.27
2022-08-26T01:03:11.506Z,72.22
2022-08-26T01:05:43.914Z,72.80
2022-08-26T01:08:13.019Z,72.49
2022-08-26T01:10:42.564Z,72.64
2022-08-26T01:13:14.944Z,72.80
2022-08-26T01:15:47.835Z,72.96
2022-08-26T01:18:17.439Z,73.36
2022-08-26T01:21:22.957Z,73.47
2022-08-26T01:23:57.668Z,73.10
2022-08-26T01:26:33.465Z,73.47
2022-08-26T01:29:06.327Z,73.70
2022-08-26T01:31:45.411Z,73.73
2022-08-26T01:34:22.739Z,73.12
2022-08-26T01:36:55.384Z,72.94
2022-08-26T01:39:25.336Z,72.94
2022-08-26T01:41:58.247Z,72.29
2022-08-26T01:44:36.636Z,72.27
2022-08-26T01:47:08.291Z,72.05
2022-08-26T01:49:39.213Z,71.97
2022-08-26T01:52:09.325Z,72.09
2022-08-26T01:54:40.416Z,72.18
2022-08-26T01:57:09.603Z,72.56
2022-08-26T01:59:39.075Z,72.80
2022-08-26T02:02:09.660Z,72.72
2022-08-26T02:04:48.295Z,72.53
2022-08-26T02:07:21.528Z,72.11
2022-08-26T02:09:51.088Z,71.73
2022-08-26T02:12:20.789Z,71.95
2022-08-26T02:14:54.294Z,71.62
2022-08-26T02:17:29.620Z,71.77
2022-08-26T02:19:59.405Z,71.80
2022-08-26T02:22:31.161Z,72.04
2022-08-26T02:25:08.345Z,72.24
2022-08-26T02:27:38.125Z,72.58
2022-08-26T02:30:17.335Z,72.20
2022-08-26T02:32:46.693Z,72.47
2022-08-26T02:35:22.094Z,72.73
2022-08-26T02:37:55.484Z,73.20
2022-08-26T02:40:31.676Z,72.31
2022-08-26T02:43:01.432Z,72.28
2022-08-26T02:45:31.173Z,72.04
2022-08-26T02:48:12.796Z,71.74
2022-08-26T02:50:41.937Z,71.65
2022-08-26T02:53:13.613Z,71.82
2022-08-26T02:55:42.923Z,71.97
2022-08-26T02:58:12.320Z,71.93
2022-08-26T03:00:52.505Z,71.61
2022-08-26T03:03:23.519Z,72.19
2022-08-26T03:05:54.384Z,72.05
2022-08-26T03:08:24.605Z,72.09
2022-08-26T03:10:56.668Z,72.01
2022-08-26T03:13:25.479Z,72.25
2022-08-26T03:15:54.802Z,72.07
2022-08-26T03:18:25.429Z,72.06
2022-08-26T03:20:55.646Z,71.81
2022-08-26T03:23:25.943Z,71.55
2022-08-26T03:25:55.454Z,71.59
2022-08-26T03:28:27.054Z,71.20
2022-08-26T03:30:58.022Z,70.97
2022-08-26T03:33:27.671Z,71.13
2022-08-26T03:35:57.469Z,70.98
2022-08-26T03:38:26.940Z,70.78
2022-08-26T03:40:56.597Z,70.51
2022-08-26T03:43:27.483Z,70.44
2022-08-26T03:45:56.268Z,70.35
2022-08-26T03:48:28.050Z,70.33
2022-08-26T03:50:57.045Z,70.24
2022-08-26T03:53:27.154Z,69.74
2022-08-26T03:55:59.789Z,69.29
2022-08-26T03:58:28.825Z,69.12
2022-08-26T04:00:59.034Z,69.08
2022-08-26T04:03:46.825Z,68.56
2022-08-26T04:06:17.350Z,68.02
2022-08-26T04:08:47.434Z,67.70
2022-08-26T04:11:23.619Z,67.69
2022-08-26T04:13:52.668Z,67.15
2022-08-26T04:16:22.953Z,66.65
2022-08-26T04:18:55.984Z,66.89
2022-08-26T04:21:27.682Z,67.05
2022-08-26T04:23:59.787Z,67.99
2022-08-26T04:26:39.494Z,66.89
2022-08-26T04:29:19.696Z,64.13
2022-08-26T04:31:55.596Z,64.02
2022-08-26T04:34:30.382Z,63.04
2022-08-26T04:37:03.004Z,61.94
2022-08-26T04:39:37.959Z,61.77
2022-08-26T04:42:12.080Z,60.81
2022-08-26T04:44:44.665Z,60.90
2022-08-26T04:47:23.086Z,60.64
2022-08-26T04:50:02.261Z,59.83
2022-08-26T04:52:40.719Z,59.74
2022-08-26T04:55:14.202Z,59.23
2022-08-26T04:57:48.225Z,57.72
2022-08-26T05:00:19.434Z,56.33
2022-08-26T05:03:03.040Z,56.95
2022-08-26T05:05:41.066Z,56.97
2022-08-26T05:08:24.804Z,55.37
2022-08-26T05:11:01.020Z,55.65
2022-08-26T07:54:11.437Z,21.92
2022-08-26T07:56:48.078Z,21.67
2022-08-26T07:59:26.849Z,22.32
2022-08-26T08:02:02.133Z,22.24
2022-08-26T08:04:37.025Z,22.48
2022-08-26T08:28:41.736Z,21.98
2022-08-26T08:31:56.222Z,21.02
2022-08-26T08:34:22.529Z,20.60
2022-08-26T08:36:58.373Z,20.75
2022-08-26T08:39:33.664Z,20.19
2022-08-26T08:42:29.039Z,20.53
2022-08-26T08:45:08.018Z,20.15
2022-08-26T08:47:59.765Z,19.60
2022-08-26T08:50:46.555Z,20.15
2022-08-26T08:53:33.520Z,20.45
2022-08-26T08:56:18.877Z,20.47
2022-08-26T08:59:18.683Z,19.94
2022-08-26T12:02:19.237Z,23.24
2022-08-26T12:04:55.281Z,23.52
2022-08-26T12:07:34.307Z,22.86
2022-08-26T12:10:08.955Z,23.85
2022-08-26T12:12:43.007Z,24.51
2022-08-26T12:15:23.510Z,24.86
2022-08-26T12:18:00.501Z,24.77
2022-08-26T12:20:51.610Z,25.58
2022-08-26T12:23:42.068Z,25.67
2022-08-26T12:26:36.448Z,25.48
2022-08-26T12:29:20.363Z,25.58
2022-08-26T12:32:18.881Z,25.35
2022-08-26T12:34:55.961Z,25.11
2022-08-26T12:37:30.723Z,25.82
2022-08-26T12:40:42.999Z,25.63
2022-08-26T12:43:39.020Z,26.60
2022-08-26T12:46:21.456Z,27.80
2022-08-26T12:49:04.528Z,25.00
2022-08-26T12:51:44.398Z,26.08
2022-08-26T12:54:19.452Z,26.44
2022-08-26T12:56:54.364Z,26.66
2022-08-26T12:59:29.830Z,26.72
2022-08-26T13:02:07.909Z,27.31
2022-08-26T13:04:44.710Z,28.04
2022-08-26T13:07:27.159Z,27.13
2022-08-26T13:10:01.810Z,27.19
2022-08-26T13:12:38.109Z,27.19
2022-08-26T13:15:12.647Z,28.08
2022-08-26T13:17:45.905Z,27.82
2022-08-26T13:20:18.565Z,27.93
2022-08-26T13:22:58.918Z,27.94
2022-08-26T13:25:32.832Z,27.08
2022-08-26T13:28:14.371Z,28.40
2022-08-26T13:30:51.489Z,27.69
2022-08-26T13:33:25.993Z,27.51
2022-08-26T13:35:58.947Z,28.84
2022-08-26T13:38:33.477Z,28.96
2022-08-26T13:41:06.968Z,27.33
2022-08-26T13:43:38.946Z,27.39
2022-08-26T13:46:10.550Z,27.72
2022-08-26T13:48:47.966Z,27.60
2022-08-26T13:51:20.873Z,27.76
2022-08-26T13:53:55.124Z,27.96
2022-08-26T13:56:30.846Z,28.28
2022-08-26T13:59:06.861Z,27.95
2022-08-26T14:01:40.733Z,28.89
2022-08-26T14:04:13.488Z,28.64
2022-08-26T14:06:47.765Z,28.52
2022-08-26T14:09:26.198Z,28.14
2022-08-26T14:12:08.318Z,28.67
2022-08-26T14:14:55.287Z,28.22
2022-08-26T14:17:30.784Z,28.13
2022-08-26T14:20:10.755Z,28.01
2022-08-26T14:23:12.629Z,27.70
2022-08-26T14:25:41.364Z,27.82
2022-08-26T14:28:14.555Z,27.57
2022-08-26T14:30:58.453Z,28.81
2022-08-26T14:33:35.662Z,28.76
2022-08-26T14:36:38.310Z,28.43
2022-08-26T14:39:13.827Z,28.48
2022-08-26T14:41:53.823Z,27.89
2022-08-26T14:44:31.042Z,27.87
2022-08-26T14:47:06.303Z,28.71
2022-08-26T14:49:40.528Z,28.86
2022-08-26T14:52:14.273Z,28.40
2022-08-26T14:54:55.002Z,28.79
2022-08-26T14:57:30.226Z,28.48
2022-08-26T15:00:03.977Z,28.05
2022-08-26T15:02:36.031Z,28.07
2022-08-26T15:05:12.521Z,28.33
2022-08-26T15:07:48.354Z,29.00
2022-08-26T15:10:23.483Z,28.41
2022-08-26T15:12:55.480Z,28.32
2022-08-26T15:15:34.109Z,28.98
2022-08-26T15:18:08.974Z,28.72
2022-08-26T15:20:39.532Z,27.81
2022-08-26T15:23:14.603Z,29.10
2022-08-26T15:25:47.378Z,28.90
2022-08-26T15:28:19.809Z,28.62
2022-08-26T15:30:54.172Z,28.81
2022-08-26T15:33:30.143Z,29.13
2022-08-26T15:36:04.908Z,29.41
2022-08-26T15:38:42.929Z,29.52
2022-08-26T15:41:17.319Z,28.99
2022-08-26T15:43:50.673Z,28.57
2022-08-26T15:46:23.731Z,28.97
2022-08-26T15:48:54.069Z,28.78
2022-08-26T15:51:31.680Z,28.79
2022-08-26T15:54:06.366Z,28.67
2022-08-26T15:56:51.502Z,29.03
2022-08-26T15:59:26.312Z,29.46
2022-08-26T16:01:58.364Z,29.73
2022-08-26T16:04:30.333Z,30.01
2022-08-26T16:07:05.028Z,30.25
2022-08-26T16:09:44.661Z,30.58
2022-08-26T16:14:53.722Z,31.07
2022-08-26T16:17:24.869Z,31.11
2022-08-26T16:20:06.225Z,31.34
2022-08-26T16:22:38.710Z,31.89
2022-08-26T16:25:12.956Z,31.97
2022-08-26T16:27:45.906Z,32.34
2022-08-26T16:30:24.213Z,32.35
2022-08-26T16:32:59.791Z,32.68
2022-08-26T16:35:33.246Z,33.16
2022-08-26T16:38:05.549Z,33.86
2022-08-26T16:40:39.730Z,34.19
2022-08-26T16:43:16.928Z,34.50
2022-08-26T16:45:50.678Z,34.85
2022-08-26T16:48:28.692Z,35.07
2022-08-26T16:50:58.907Z,35.29
2022-08-26T16:53:30.504Z,36.45
2022-08-26T16:56:04.777Z,37.76
2022-08-26T16:58:38.093Z,38.12
2022-08-26T17:01:16.962Z,37.42
2022-08-26T17:03:50.582Z,36.98
2022-08-26T17:06:21.517Z,36.92
2022-08-26T17:08:53.765Z,38.00
2022-08-26T17:11:33.909Z,38.36
2022-08-26T17:14:09.987Z,39.97
2022-08-26T17:16:40.997Z,41.05
2022-08-26T17:19:14.168Z,42.75
2022-08-26T17:21:47.899Z,43.33
2022-08-26T17:24:32.128Z,44.57
2022-08-26T17:27:04.657Z,45.75
2022-08-26T17:29:39.473Z,46.42
2022-08-26T17:32:12.167Z,46.88
2022-08-26T17:34:46.394Z,45.59
2022-08-26T17:37:19.523Z,46.25
2022-08-26T17:39:55.606Z,44.06
2022-08-26T17:42:31.323Z,46.05
2022-08-26T17:45:06.779Z,46.50
2022-08-26T17:47:46.730Z,47.16
2022-08-26T17:50:21.909Z,48.04
2022-08-26T17:52:56.817Z,48.85
2022-08-26T17:55:30.609Z,49.93
2022-08-26T17:58:07.429Z,49.00
2022-08-26T18:00:39.162Z,48.95
2022-08-26T18:03:13.041Z,49.22
2022-08-26T18:05:47.642Z,48.63
2022-08-26T18:08:17.035Z,48.94
2022-08-26T18:10:49.202Z,49.51
2022-08-26T18:13:20.749Z,50.12
2022-08-26T18:15:52.318Z,50.37
2022-08-26T18:18:24.520Z,50.53
2022-08-26T18:20:56.853Z,50.94
2022-08-26T18:23:32.413Z,52.13
2022-08-26T18:26:03.487Z,52.05
2022-08-26T18:28:33.970Z,52.34
2022-08-26T18:31:07.734Z,51.99
2022-08-26T18:33:42.875Z,52.52
2022-08-26T18:36:22.807Z,52.23
2022-08-26T18:38:53.968Z,52.69
2022-08-26T18:41:28.219Z,52.59
2022-08-26T18:44:00.185Z,52.88
2022-08-26T18:46:34.210Z,54.07
2022-08-26T18:49:08.081Z,54.59
2022-08-26T18:51:43.399Z,54.65
2022-08-26T18:54:15.738Z,53.29
2022-08-26T18:56:48.028Z,53.56
2022-08-26T18:59:17.756Z,54.67
2022-08-26T19:01:53.269Z,55.31
2022-08-26T19:04:24.233Z,55.78
2022-08-26T19:06:58.222Z,56.19
2022-08-26T19:09:29.051Z,56.83
2022-08-26T19:12:04.229Z,58.72
2022-08-26T19:14:38.905Z,59.73
2022-08-26T19:17:09.600Z,60.07
2022-08-26T19:19:45.963Z,60.19
2022-08-26T19:22:25.482Z,60.16
2022-08-26T19:24:59.997Z,60.34
2022-08-26T19:27:31.573Z,60.58
2022-08-26T19:30:02.261Z,60.82
2022-08-26T19:32:32.467Z,61.09
2022-08-26T19:35:02.984Z,60.18
2022-08-26T19:37:35.627Z,60.42
2022-08-26T19:40:09.056Z,59.88
2022-08-26T19:42:40.559Z,59.08
2022-08-26T19:45:24.480Z,59.12
2022-08-26T19:48:00.639Z,59.58
2022-08-26T19:50:34.841Z,61.07
2022-08-26T19:53:05.776Z,60.60
2022-08-26T19:55:37.043Z,60.79
2022-08-26T19:58:08.397Z,60.30
2022-08-26T20:00:43.892Z,60.45
2022-08-26T20:03:16.312Z,60.42
2022-08-26T20:05:49.355Z,59.70
2022-08-26T20:08:22.821Z,58.61
2022-08-26T20:10:56.174Z,56.29
2022-08-26T20:13:27.183Z,56.66
2022-08-26T20:15:57.933Z,56.43
2022-08-26T20:18:46.987Z,56.86
2022-08-26T20:21:26.802Z,57.04
2022-08-26T20:24:06.199Z,56.11
2022-08-26T20:26:39.219Z,56.86
2022-08-26T20:29:13.856Z,55.59
2022-08-26T20:31:49.524Z,54.88
2022-08-26T20:34:26.218Z,55.24
2022-08-26T20:36:56.082Z,54.93
2022-08-26T20:39:30.196Z,54.92
2022-08-26T20:42:05.119Z,54.87
2022-08-26T20:44:36.840Z,55.55
2022-08-26T20:47:13.329Z,55.52
2022-08-26T20:49:44.533Z,55.56
2022-08-26T20:52:16.956Z,55.36
2022-08-26T20:54:46.751Z,54.53
2022-08-26T20:57:17.304Z,55.51
2022-08-26T20:59:50.038Z,56.29
2022-08-26T21:02:19.789Z,56.42
2022-08-26T21:04:49.866Z,56.56
2022-08-26T21:07:21.302Z,56.90
2022-08-26T21:09:52.240Z,56.58
2022-08-26T21:12:23.430Z,56.40
2022-08-26T21:14:54.830Z,56.95
2022-08-26T21:17:24.630Z,56.82
2022-08-26T21:19:57.877Z,56.54
2022-08-26T21:22:27.467Z,57.08
2022-08-26T21:24:59.741Z,57.30
2022-08-26T21:27:30.702Z,57.74
2022-08-26T21:30:02.378Z,57.21
2022-08-26T21:32:35.894Z,55.69
2022-08-26T21:35:13.449Z,55.01
2022-08-26T21:37:45.235Z,55.38
2022-08-26T21:40:15.451Z,56.24
2022-08-26T21:42:51.237Z,56.10
2022-08-26T21:45:21.436Z,55.45
2022-08-26T21:47:55.697Z,55.73
2022-08-26T21:50:25.868Z,55.28
2022-08-26T21:53:00.316Z,54.95
2022-08-26T21:55:31.052Z,55.13
2022-08-26T21:58:01.287Z,55.17
2022-08-26T22:00:30.931Z,55.14
2022-08-26T22:03:01.418Z,54.87
2022-08-26T22:05:35.787Z,53.53
2022-08-26T22:08:11.293Z,52.64
2022-08-26T22:10:45.404Z,52.39
2022-08-26T22:13:15.280Z,51.56
2022-08-26T22:15:52.203Z,51.50
2022-08-26T22:18:29.432Z,50.79
2022-08-26T22:21:02.576Z,50.78
2022-08-26T22:23:36.452Z,51.09
2022-08-26T22:26:09.795Z,50.17
2022-08-26T22:28:42.883Z,49.74
2022-08-26T22:31:14.280Z,49.19
2022-08-26T22:33:45.295Z,49.46
2022-08-26T22:36:31.447Z,49.89
2022-08-26T22:39:04.929Z,50.23
2022-08-26T22:41:36.079Z,50.72
2022-08-26T22:44:08.651Z,51.26
2022-08-26T22:46:40.865Z,51.35
2022-08-26T22:49:12.505Z,51.52
2022-08-26T22:51:44.335Z,51.69
2022-08-26T22:54:17.101Z,52.14
2022-08-26T22:56:49.491Z,52.47
2022-08-26T22:59:26.327Z,52.26
2022-08-26T23:01:55.749Z,52.46
2022-08-26T23:04:27.190Z,52.50
2022-08-26T23:07:03.026Z,53.05
2022-08-26T23:09:42.366Z,52.64
2022-08-26T23:12:15.240Z,52.51
2022-08-26T23:14:44.691Z,52.46
2022-08-26T23:17:16.672Z,52.47
2022-08-26T23:19:47.120Z,52.71
2022-08-26T23:22:18.824Z,52.55
2022-08-26T23:24:50.903Z,52.54
2022-08-26T23:27:20.384Z,51.89
2022-08-26T23:29:49.861Z,51.18
2022-08-26T23:32:24.440Z,50.95
2022-08-26T23:34:57.935Z,50.29
2022-08-26T23:37:32.092Z,50.41
2022-08-26T23:40:09.190Z,51.07
2022-08-26T23:42:39.273Z,51.28
2022-08-26T23:45:13.071Z,51.37
2022-08-26T23:47:49.035Z,51.98
2022-08-26T23:50:20.884Z,52.46
2022-08-26T23:53:09.426Z,53.50
2022-08-26T23:55:40.357Z,54.25
2022-08-26T23:58:12.062Z,54.23
